• Join FlightAware (Why Join?)
  • Login
  • US Flag 
04:00PM EST


 

Airport Tracker/Info


-or-


 

Live Flight TrackerFlight Track Log ✈ N478MB ✈ 14-May-2013 ✈ KSOP - KEXX

Flight Track Log - Related Links

Times and Time Zones

All times are in EDT time to prevent confusion due to time zone crossing. See the N478MB flight status page for this flight to view local times or setup timezone preferences in your user account.

Time Position Orientation Groundspeed Altitude Reporting Facility
EDT Latitude Longitude Course Direction KTS MPH feet Rate Location/Type
09:55AM 35.3471 -79.5703 306° West  Level Estimated
09:56AM 35.3653 -79.6007 306° West  Level Estimated
09:57AM 35.3834 -79.6311 306° West  Level Estimated
09:58AM 35.4016 -79.6615 306° West  Level Estimated
09:59AM 35.4197 -79.6919 306° West  Level Estimated
10:00AM 35.4379 -79.7224 306° West  Level Estimated
10:01AM 35.4560 -79.7528 306° West  Level Estimated
10:02AM 35.4741 -79.7833 306° West  Level Estimated
10:03AM 35.4922 -79.8138 306° West  Level Estimated
10:04AM 35.5103 -79.8443 306° West  Level Estimated
10:05AM 35.5284 -79.8748 306° West  Level Estimated
10:06AM 35.5465 -79.9053 306° West  Level Estimated
10:07AM 35.5646 -79.9359 306° West  Level Estimated
10:08AM 35.5826 -79.9664 306° West  Level Estimated
10:09AM 35.6007 -79.9970 306° West  Level Estimated
10:10AM 35.6187 -80.0275 306° West  Level Estimated
10:11AM 35.6368 -80.0581 306° West  Level Estimated
10:12AM 35.6548 -80.0887 306° West  Level Estimated
10:13AM 35.6729 -80.1193 306° West  Level Estimated
10:14AM 35.6909 -80.1500 306° West  Level Estimated
10:15AM 35.7089 -80.1806 306° West  Level Estimated
10:16AM 35.7269 -80.2113 306° West  Level Estimated
10:17AM 35.7449 -80.2420 306° West  Level Estimated
10:18AM 35.7629 -80.2727 306° West  Level Estimated
10:19AM 35.7809 -80.3034 306° West  Level Estimated
10:20AM 35.7811 -80.3038 306° West  Level Estimated
10:21AM 35.7811 -80.3038 122° Southeast  Level Estimated
10:22AM 35.7811 -80.3038 122° Southeast  Level Estimated
10:23AM 35.7811 -80.3038 122° Southeast  Level Estimated
10:24AM 35.7811 -80.3038 122° Southeast  Level Estimated
10:25AM 35.7811 -80.3038 122° Southeast  Level Estimated
10:26AM 35.7811 -80.3038 122° Southeast  Level Estimated
10:27AM 35.7811 -80.3038 122° Southeast  Level Estimated
10:28AM 35.7811 -80.3038 122° Southeast  Level Estimated
10:29AM 35.7811 -80.3038 122° Southeast  Level Estimated
10:30AM 35.7811 -80.3038 122° Southeast  Level Estimated
10:31AM 35.7811 -80.3038 122° Southeast  Level Estimated
10:32AM 35.7811 -80.3038 122° Southeast  Level Estimated
10:33AM 35.7811 -80.3038 122° Southeast  Level Estimated
10:34AM 35.7811 -80.3038 122° Southeast  Level Estimated
10:35AM 35.7811 -80.3038 122° Southeast  Level Estimated